Samnorwood, TX (79077)

9:02 AM CDT on July 24, 2014 (GMT -0500)
WT_Meso Memphis 1NE (MMEST2) Elev 2057 ft | 34.73 °N, 100.53 °W | Change Station

Current weather conditions updated 37 minutes ago

Clear
Clear
77 °F
Feels Like 79 °F
N
4
Wind Variable Wind from NNW
Gusts 5.0 mph

Today is forecast to be Warmer than yesterday.

Today
High -- | Low -- °F
--% Chance of Precip.
Yesterday
High -- | Low -- °F
Precip. -- in
6:44 AM 8:49 PM
Waning Crescent, 5% visible
Pressure 30.02 in
Visibility 10.0 miles
Clouds Clear
Heat Index 79 °F
Dew Point 69 °F
Humidity 77%
Rainfall -999.00 in
Snow Depth Not available.
UV 2 out of 12
Pollen 5.10 out of 12
Air Quality Not available.
Flu Activity Not available.
METAR KCDS 241353Z AUTO 30004KT 10SM CLR 27/19 A3011 RMK AO2 SLP165 T02720194

More Conditions Fewer Conditions

Pressure 30.02 in
Visibility 10.0 miles
Clouds Clear
Heat Index 79 °F
Dew Point 69 °F
Humidity 77%
Rainfall -999.00 in
Snow Depth Not available.
UV 2 out of 12
Pollen 5.10 out of 12
Air Quality Not available.
Flu Activity Not available.
METAR KCDS 241353Z AUTO 30004KT 10SM CLR 27/19 A3011 RMK AO2 SLP165 T02720194

More Conditions Fewer Conditions

10-Day Weather Forecast

Almanac

Astronomy

Jul. 24, 2014 Rise Set
Actual Time 6:44 AM CDT 8:49 PM CDT
Civil Twilight 6:16 AM CDT 9:17 PM CDT
Nautical Twilight 5:41 AM CDT 9:52 PM CDT
Astronomical Twilight 5:04 AM CDT 10:29 PM CDT
Moon 4:53 AM CDT 7:07 PM CDT
Length of Visible Light 15h 01m
Length of Day
14h 04m
Tomorrow will be 1m 26s shorter.
Waning Crescent, 5% of the Moon is Illuminated
Today
Waning Crescent
Jul 26
New
Aug 3
First Quarter
Aug 10
Full
Aug 17
Last Quarter

Today's Extremes

State Highs State Lows

Community

WunderPhotos

Upload Photos

1,737,007 photos uploaded!

Nearby

Snow Depth

Station Depth Elevation
No new snow has been reported.

Earthquake Activity

City Distance Mag. Time & Date
Cherokee, Oklahoma 168 miles 2.5 10:35 AM CDT
2014-07-17
Minimum magnitude displayed is 2.5.

Coastal Water Temperatures

Place Temperature
No Stations Reporting

Nearby Weather Stations

Station Location Temp. Heat Index Dew Point Humidity Wind Precip. Elev Updated Type
WT_Meso Memphis 1NE, Memphis, TX 77 °F 79 °F 69 °F 77% NNW  at  4 mph 0.00 in / hr 2057 ft 8:25 AM CDT MADIS

Show More Stations Show Fewer Stations